createdAt,value
2022-08-11T00:02:37.144Z,0.00
2022-08-11T00:07:36.529Z,0.00
2022-08-11T00:12:37.765Z,0.00
2022-08-11T00:17:39.004Z,0.00
2022-08-11T00:22:40.452Z,0.00
2022-08-11T00:27:40.716Z,0.00
2022-08-11T00:32:40.005Z,0.00
2022-08-11T00:37:41.191Z,0.00
2022-08-11T00:42:42.334Z,0.00
2022-08-11T00:47:43.401Z,0.00
2022-08-11T00:52:44.507Z,0.00
2022-08-11T00:57:45.661Z,0.00
2022-08-11T01:02:46.815Z,0.00
2022-08-11T01:08:01.662Z,0.00
2022-08-11T01:12:49.190Z,0.00
2022-08-11T01:17:48.663Z,0.00
2022-08-11T01:22:48.146Z,0.00
2022-08-11T01:27:47.647Z,0.00
2022-08-11T01:32:47.102Z,0.00
2022-08-11T01:37:46.673Z,0.00
2022-08-11T01:42:47.076Z,0.00
2022-08-11T01:47:53.026Z,0.00
2022-08-11T01:52:46.871Z,0.00
2022-08-11T01:57:48.439Z,0.00
2022-08-11T02:02:46.050Z,0.00
2022-08-11T02:07:45.558Z,0.00
2022-08-11T02:12:52.212Z,0.00
2022-08-11T02:17:45.399Z,0.00
2022-08-11T02:22:44.874Z,0.00
2022-08-11T02:27:44.330Z,0.00
2022-08-11T02:32:43.844Z,0.00
2022-08-11T02:37:44.314Z,0.00
2022-08-11T02:42:44.275Z,0.00
2022-08-11T02:47:43.785Z,0.00
2022-08-11T02:52:45.275Z,0.00
2022-08-11T02:57:44.760Z,0.00
2022-08-11T03:02:45.075Z,0.00
2022-08-11T03:07:44.187Z,0.00
2022-08-11T03:12:48.022Z,0.00
2022-08-11T03:17:45.305Z,0.00
2022-08-11T03:22:46.539Z,0.00
2022-08-11T03:27:47.669Z,0.00
2022-08-11T03:32:48.781Z,0.00
2022-08-11T03:37:49.961Z,0.00
2022-08-11T03:42:51.147Z,0.00
2022-08-11T03:47:53.447Z,0.00
2022-08-11T03:52:50.656Z,0.00
2022-08-11T03:57:50.833Z,0.00
2022-08-11T04:02:52.017Z,5.62
2022-08-11T04:07:53.176Z,11.25
2022-08-11T04:12:55.440Z,16.88
2022-08-11T04:17:56.873Z,22.50
2022-08-11T04:22:54.055Z,33.75
2022-08-11T04:27:55.212Z,50.62
2022-08-11T04:32:54.840Z,61.88
2022-08-11T04:37:55.985Z,78.75
2022-08-11T04:42:57.168Z,95.62
2022-08-11T04:48:03.505Z,112.50
2022-08-11T04:52:58.321Z,123.75
2022-08-11T04:57:59.498Z,135.00
2022-08-11T05:03:00.679Z,157.50
2022-08-11T05:08:01.832Z,174.38
2022-08-11T05:13:03.106Z,191.25
2022-08-11T05:18:04.272Z,202.50
2022-08-11T05:23:05.472Z,213.75
2022-08-11T05:28:06.727Z,225.00
2022-08-11T05:33:07.983Z,230.62
2022-08-11T05:38:09.170Z,236.25
2022-08-11T05:43:11.301Z,247.50
2022-08-11T05:48:10.458Z,253.12
2022-08-11T05:53:11.899Z,258.75
2022-08-11T05:58:12.294Z,270.00
2022-08-11T06:03:12.444Z,281.25
2022-08-11T06:08:11.582Z,286.88
2022-08-11T06:13:15.701Z,292.50
2022-08-11T06:18:12.887Z,303.75
2022-08-11T06:23:13.990Z,303.75
2022-08-11T06:28:20.362Z,309.38
2022-08-11T06:33:15.113Z,315.00
2022-08-11T06:38:17.247Z,320.62
2022-08-11T06:43:17.483Z,326.25
2022-08-11T06:48:17.657Z,331.88
2022-08-11T06:53:16.838Z,331.88
2022-08-11T06:58:17.951Z,337.50
2022-08-11T07:03:19.085Z,343.12
2022-08-11T07:08:34.273Z,343.12
2022-08-11T07:13:44.226Z,348.75
2022-08-11T07:18:20.148Z,348.75
2022-08-11T07:23:21.277Z,354.38
2022-08-11T07:28:22.411Z,354.38
2022-08-11T07:34:06.409Z,360.00
2022-08-11T07:38:25.492Z,354.38
2022-08-11T07:43:24.783Z,354.38
2022-08-11T07:48:25.894Z,354.38
2022-08-11T07:53:27.033Z,365.62
2022-08-11T07:58:28.130Z,360.00
2022-08-11T08:03:29.758Z,365.62
2022-08-11T08:08:28.894Z,365.62
2022-08-11T08:13:30.061Z,371.25
2022-08-11T08:18:31.193Z,371.25
2022-08-11T08:23:32.287Z,371.25
2022-08-11T08:28:33.462Z,376.88
2022-08-11T08:33:34.565Z,376.88
2022-08-11T08:38:34.694Z,376.88
2022-08-11T08:43:48.543Z,382.50
2022-08-11T08:48:36.861Z,382.50
2022-08-11T08:53:37.066Z,393.75
2022-08-11T08:58:36.191Z,393.75
2022-08-11T09:04:02.862Z,388.12
2022-08-11T09:08:39.260Z,399.38
2022-08-11T09:13:38.446Z,405.00
2022-08-11T09:18:40.604Z,382.50
2022-08-11T09:24:08.831Z,382.50
2022-08-11T09:28:39.859Z,388.12
2022-08-11T09:33:41.265Z,376.88
2022-08-11T09:38:47.369Z,382.50
2022-08-11T09:43:43.072Z,393.75
2022-08-11T09:48:44.204Z,388.12
2022-08-11T09:53:47.061Z,388.12
2022-08-11T09:58:46.282Z,388.12
2022-08-11T10:03:47.371Z,388.12
2022-08-11T10:08:48.517Z,388.12
2022-08-11T10:14:31.122Z,393.75
2022-08-11T10:18:50.609Z,393.75
2022-08-11T10:24:01.096Z,399.38
2022-08-11T10:29:10.014Z,393.75
2022-08-11T10:33:59.126Z,393.75
2022-08-11T10:38:49.627Z,393.75
2022-08-11T10:44:02.375Z,393.75
2022-08-11T10:48:50.782Z,393.75
2022-08-11T10:53:52.902Z,393.75
2022-08-11T10:58:52.011Z,393.75
2022-08-11T11:03:53.129Z,399.38
2022-08-11T11:08:57.706Z,399.38
2022-08-11T11:13:57.273Z,399.38
2022-08-11T11:19:00.956Z,399.38
2022-08-11T11:23:56.516Z,399.38
2022-08-11T11:28:57.651Z,410.62
2022-08-11T11:34:12.000Z,410.62
2022-08-11T11:39:00.696Z,410.62
2022-08-11T11:44:01.456Z,410.62
2022-08-11T11:49:01.724Z,410.62
2022-08-11T11:54:01.530Z,410.62
2022-08-11T11:59:04.665Z,410.62
2022-08-11T12:04:04.792Z,410.62
2022-08-11T12:09:03.929Z,416.25
2022-08-11T12:14:10.433Z,410.62
2022-08-11T12:19:07.055Z,416.25
2022-08-11T12:24:07.182Z,410.62
2022-08-11T12:29:07.281Z,416.25
2022-08-11T12:34:07.418Z,416.25
2022-08-11T12:39:23.020Z,416.25
2022-08-11T12:44:08.543Z,416.25
2022-08-11T12:49:07.658Z,421.88
2022-08-11T12:54:08.865Z,421.88
2022-08-11T12:59:09.959Z,421.88
2022-08-11T13:04:11.076Z,421.88
2022-08-11T13:09:12.240Z,421.88
2022-08-11T13:14:18.335Z,421.88
2022-08-11T13:19:13.485Z,421.88
2022-08-11T13:24:14.585Z,421.88
2022-08-11T13:29:15.704Z,421.88
2022-08-11T13:34:16.883Z,427.50
2022-08-11T13:39:18.028Z,416.25
2022-08-11T13:44:26.020Z,421.88
2022-08-11T13:49:20.369Z,416.25
2022-08-11T13:54:19.449Z,416.25
2022-08-11T13:59:23.048Z,416.25
2022-08-11T14:04:30.333Z,410.62
2022-08-11T14:09:21.991Z,416.25
2022-08-11T14:14:24.125Z,410.62
2022-08-11T14:19:23.225Z,416.25
2022-08-11T14:24:25.339Z,421.88
2022-08-11T14:29:24.455Z,421.88
2022-08-11T14:34:26.578Z,433.12
2022-08-11T14:39:25.729Z,489.38
2022-08-11T14:44:27.851Z,500.62
2022-08-11T14:49:27.972Z,489.38
2022-08-11T14:54:28.097Z,461.25
2022-08-11T14:59:27.202Z,472.50
2022-08-11T15:04:36.342Z,478.12
2022-08-11T15:09:28.068Z,478.12
2022-08-11T15:14:31.189Z,483.75
2022-08-11T15:19:40.271Z,489.38
2022-08-11T15:24:30.769Z,495.00
2022-08-11T15:29:30.265Z,500.62
2022-08-11T15:34:31.379Z,511.88
2022-08-11T15:39:32.507Z,511.88
2022-08-11T15:45:01.178Z,500.62
2022-08-11T15:50:11.154Z,483.75
2022-08-11T15:54:35.699Z,461.25
2022-08-11T15:59:43.279Z,483.75
2022-08-11T16:04:36.805Z,483.75
2022-08-11T16:09:41.352Z,478.12
2022-08-11T16:14:36.903Z,500.62
2022-08-11T16:19:36.077Z,500.62
2022-08-11T16:27:02.079Z,472.50
2022-08-11T16:29:37.194Z,455.62
2022-08-11T16:34:38.347Z,466.88
2022-08-11T16:39:39.533Z,444.38
2022-08-11T16:44:40.733Z,343.12
2022-08-11T16:49:47.130Z,365.62
2022-08-11T16:54:44.391Z,405.00
2022-08-11T16:59:40.852Z,298.12
2022-08-11T17:04:40.386Z,309.38
2022-08-11T17:09:42.589Z,286.88
2022-08-11T17:14:42.771Z,292.50
2022-08-11T17:20:38.535Z,236.25
2022-08-11T17:24:41.897Z,241.88
2022-08-11T17:29:53.540Z,219.38
2022-08-11T17:34:44.064Z,230.62
2022-08-11T17:39:45.197Z,196.88
2022-08-11T17:44:46.304Z,202.50
2022-08-11T17:49:48.447Z,185.62
2022-08-11T17:54:49.560Z,157.50
2022-08-11T17:59:49.488Z,129.38
2022-08-11T18:04:48.612Z,118.12
2022-08-11T18:09:49.719Z,78.75
2022-08-11T18:14:50.879Z,50.62
2022-08-11T18:19:52.020Z,39.38
2022-08-11T18:24:53.234Z,28.12
2022-08-11T18:29:54.879Z,16.88
2022-08-11T18:34:55.987Z,11.25
2022-08-11T18:39:56.031Z,5.62
2022-08-11T18:44:53.995Z,5.62
2022-08-11T18:50:02.001Z,0.00
2022-08-11T18:54:56.077Z,0.00
2022-08-11T18:59:55.181Z,0.00
2022-08-11T19:04:56.361Z,0.00
2022-08-11T19:09:58.537Z,0.00
2022-08-11T19:14:57.692Z,0.00
2022-08-11T19:19:58.925Z,0.00
2022-08-11T19:25:01.105Z,0.00
2022-08-11T19:30:11.930Z,0.00
2022-08-11T19:35:01.186Z,0.00
2022-08-11T19:40:01.430Z,0.00
2022-08-11T19:45:01.729Z,0.00
2022-08-11T19:50:00.820Z,0.00
2022-08-11T19:55:02.976Z,0.00
2022-08-11T20:00:03.650Z,0.00
2022-08-11T20:05:02.850Z,0.00
2022-08-11T20:10:05.873Z,0.00
2022-08-11T20:15:04.797Z,0.00
2022-08-11T20:20:04.083Z,0.00
2022-08-11T20:25:05.207Z,0.00
2022-08-11T20:30:06.369Z,0.00
2022-08-11T20:35:07.563Z,0.00
2022-08-11T20:40:09.761Z,0.00
2022-08-11T20:45:08.874Z,0.00
2022-08-11T20:50:09.965Z,0.00
2022-08-11T20:55:10.858Z,0.00
2022-08-11T21:00:10.827Z,0.00
2022-08-11T21:05:13.096Z,0.00
2022-08-11T21:10:15.855Z,0.00
2022-08-11T21:15:11.918Z,0.00
2022-08-11T21:20:18.420Z,0.00
2022-08-11T21:25:15.125Z,0.00
2022-08-11T21:30:14.266Z,0.00
2022-08-11T21:35:15.408Z,0.00
2022-08-11T21:40:17.376Z,0.00
2022-08-11T21:45:15.806Z,0.00
2022-08-11T21:50:16.984Z,0.00
2022-08-11T21:55:18.535Z,0.00
2022-08-11T22:00:18.691Z,0.00
2022-08-11T22:05:19.221Z,0.00
2022-08-11T22:10:41.008Z,0.00
2022-08-11T22:15:18.282Z,0.00
2022-08-11T22:20:19.402Z,0.00
2022-08-11T22:25:20.660Z,0.00
2022-08-11T22:30:21.780Z,0.00
2022-08-11T22:35:22.874Z,0.00
2022-08-11T22:40:23.977Z,0.00
2022-08-11T22:45:26.156Z,0.00
2022-08-11T22:50:26.243Z,0.00
2022-08-11T22:55:25.347Z,0.00
2022-08-11T23:00:30.288Z,0.00
2022-08-11T23:05:27.721Z,0.00
2022-08-11T23:10:29.859Z,0.00
2022-08-11T23:15:29.980Z,0.00
2022-08-11T23:20:33.457Z,0.00
2022-08-11T23:25:29.014Z,0.00
2022-08-11T23:30:30.408Z,0.00
2022-08-11T23:35:40.193Z,0.00
2022-08-11T23:40:31.706Z,0.00
2022-08-11T23:45:32.877Z,0.00
2022-08-11T23:50:33.965Z,0.00
2022-08-11T23:55:35.161Z,0.00
